createdAt,value
2022-10-13T00:00:40.601Z,6.97
2022-10-13T00:03:08.378Z,7.93
2022-10-13T00:05:36.047Z,5.07
2022-10-13T00:08:03.581Z,6.82
2022-10-13T00:10:31.431Z,4.75
2022-10-13T00:13:00.501Z,7.47
2022-10-13T00:15:28.092Z,4.32
2022-10-13T00:17:55.645Z,6.72
2022-10-13T00:20:23.349Z,5.68
2022-10-13T00:22:50.904Z,7.07
2022-10-13T00:25:18.476Z,5.15
2022-10-13T00:27:47.405Z,5.75
2022-10-13T00:30:16.284Z,6.13
2022-10-13T00:32:43.778Z,6.63
2022-10-13T00:35:11.521Z,6.60
2022-10-13T00:37:39.353Z,4.95
2022-10-13T00:40:07.727Z,5.25
2022-10-13T00:42:35.212Z,8.48
2022-10-13T00:45:08.144Z,8.07
2022-10-13T00:47:39.555Z,5.32
2022-10-13T00:50:08.532Z,6.72
2022-10-13T00:52:36.871Z,5.53
2022-10-13T00:55:05.238Z,6.80
2022-10-13T00:57:33.142Z,4.90
2022-10-13T01:00:02.003Z,5.25
2022-10-13T01:02:31.955Z,7.25
2022-10-13T01:05:01.860Z,10.35
2022-10-13T01:07:29.761Z,9.05
2022-10-13T01:09:57.539Z,5.90
2022-10-13T01:12:30.154Z,5.40
2022-10-13T01:15:03.468Z,8.23
2022-10-13T01:17:33.135Z,10.05
2022-10-13T01:20:23.880Z,11.30
2022-10-13T01:22:58.032Z,5.75
2022-10-13T01:25:33.328Z,5.75
2022-10-13T01:28:08.633Z,5.15
2022-10-13T01:30:38.280Z,5.15
2022-10-13T01:33:10.726Z,7.53
2022-10-13T01:35:43.471Z,6.25
2022-10-13T01:38:15.920Z,9.73
2022-10-13T01:40:48.602Z,10.18
2022-10-13T01:43:17.984Z,5.63
2022-10-13T01:45:49.736Z,6.38
2022-10-13T01:48:20.177Z,7.78
2022-10-13T01:50:53.064Z,9.73
2022-10-13T01:53:21.409Z,8.40
2022-10-13T01:55:55.654Z,5.32
2022-10-13T01:58:23.383Z,5.60
2022-10-13T02:00:58.775Z,9.40
2022-10-13T02:03:31.438Z,6.15
2022-10-13T02:06:04.202Z,7.35
2022-10-13T02:08:40.671Z,9.93
2022-10-13T02:11:13.596Z,10.00
2022-10-13T02:13:42.572Z,5.43
2022-10-13T02:16:12.060Z,5.47
2022-10-13T02:18:39.601Z,11.02
2022-10-13T02:21:07.349Z,9.65
2022-10-13T02:23:34.920Z,9.57
2022-10-13T02:26:02.511Z,8.43
2022-10-13T02:28:30.223Z,8.70
2022-10-13T02:30:57.849Z,6.75
2022-10-13T02:33:26.963Z,8.65
2022-10-13T02:35:54.548Z,8.05
2022-10-13T02:38:22.208Z,6.78
2022-10-13T02:40:49.739Z,6.00
2022-10-13T02:43:17.624Z,7.28
2022-10-13T02:45:45.188Z,7.00
2022-10-13T02:48:12.760Z,5.90
2022-10-13T02:50:41.756Z,9.20
2022-10-13T02:53:09.342Z,6.43
2022-10-13T02:55:37.060Z,6.68
2022-10-13T02:58:04.630Z,8.98
2022-10-13T03:00:32.681Z,8.85
2022-10-13T03:03:00.437Z,7.75
2022-10-13T03:05:28.157Z,9.90
2022-10-13T03:07:57.036Z,8.25
2022-10-13T03:10:24.541Z,7.32
2022-10-13T03:12:52.650Z,5.50
2022-10-13T03:15:20.212Z,7.60
2022-10-13T03:17:49.535Z,10.02
2022-10-13T03:20:17.502Z,8.32
2022-10-13T03:22:49.566Z,9.35
2022-10-13T03:25:19.005Z,6.15
2022-10-13T03:27:46.535Z,7.88
2022-10-13T03:30:14.240Z,7.82
2022-10-13T03:32:41.768Z,6.32
2022-10-13T03:35:09.646Z,14.15
2022-10-13T03:37:37.170Z,7.50
2022-10-13T03:40:04.991Z,7.68
2022-10-13T03:42:36.265Z,6.43
2022-10-13T03:45:03.831Z,7.85
2022-10-13T03:47:35.796Z,8.80
2022-10-13T03:50:03.375Z,7.30
2022-10-13T03:52:31.023Z,8.55
2022-10-13T03:54:58.616Z,8.68
2022-10-13T03:57:26.148Z,8.65
2022-10-13T03:59:56.183Z,9.35
2022-10-13T04:02:28.020Z,7.55
2022-10-13T04:04:56.604Z,7.78
2022-10-13T04:07:24.218Z,9.65
2022-10-13T04:09:51.845Z,6.72
2022-10-13T04:12:21.081Z,9.05
2022-10-13T04:14:49.009Z,7.70
2022-10-13T04:17:17.971Z,9.07
2022-10-13T04:19:45.679Z,8.20
2022-10-13T04:22:13.241Z,7.72
2022-10-13T04:24:41.905Z,7.88
2022-10-13T04:27:10.088Z,7.25
2022-10-13T04:29:37.947Z,10.02
2022-10-13T04:32:05.556Z,10.07
2022-10-13T04:34:34.579Z,7.15
2022-10-13T04:37:02.115Z,12.73
2022-10-13T04:39:29.639Z,9.23
2022-10-13T04:41:57.627Z,8.55
2022-10-13T04:44:25.190Z,10.63
2022-10-13T04:46:52.711Z,9.57
2022-10-13T04:49:20.226Z,8.57
2022-10-13T04:51:49.120Z,8.63
2022-10-13T04:54:16.731Z,7.07
2022-10-13T04:56:45.254Z,8.00
2022-10-13T04:59:12.868Z,9.55
2022-10-13T05:01:40.708Z,7.10
2022-10-13T05:04:13.275Z,7.00
2022-10-13T05:06:59.230Z,11.43
2022-10-13T05:09:30.636Z,10.13
2022-10-13T05:11:58.161Z,9.70
2022-10-13T05:14:25.842Z,9.50
2022-10-13T05:16:53.387Z,8.77
2022-10-13T05:19:21.256Z,6.70
2022-10-13T05:21:50.012Z,7.30
2022-10-13T05:24:17.608Z,8.25
2022-10-13T05:26:49.395Z,10.73
2022-10-13T05:29:18.287Z,12.85
2022-10-13T05:31:45.851Z,7.13
2022-10-13T05:34:14.056Z,9.18
2022-10-13T05:36:41.655Z,7.60
2022-10-13T05:39:10.562Z,9.27
2022-10-13T05:41:39.358Z,11.40
2022-10-13T05:44:17.361Z,7.25
2022-10-13T05:46:54.209Z,8.13
2022-10-13T05:49:21.738Z,9.68
2022-10-13T05:51:51.655Z,7.90
2022-10-13T05:54:24.313Z,9.18
2022-10-13T05:56:53.875Z,9.32
2022-10-13T05:59:27.098Z,8.77
2022-10-13T06:01:55.335Z,11.15
2022-10-13T06:04:27.738Z,8.40
2022-10-13T06:06:55.260Z,12.95
2022-10-13T06:09:22.874Z,15.32
2022-10-13T06:11:50.404Z,8.55
2022-10-13T06:14:17.921Z,8.30
2022-10-13T06:16:46.767Z,12.30
2022-10-13T06:19:14.263Z,7.45
2022-10-13T06:21:41.917Z,12.30
2022-10-13T06:24:09.970Z,8.05
2022-10-13T06:26:37.491Z,12.35
2022-10-13T06:29:05.242Z,8.77
2022-10-13T06:31:32.860Z,7.20
2022-10-13T06:34:01.764Z,10.45
2022-10-13T06:36:29.352Z,8.95
2022-10-13T06:38:56.890Z,8.10
2022-10-13T06:41:24.548Z,9.60
2022-10-13T06:43:52.085Z,9.05
2022-10-13T06:46:22.073Z,9.60
2022-10-13T06:48:50.026Z,12.60
2022-10-13T06:51:19.350Z,9.70
2022-10-13T06:53:47.563Z,8.32
2022-10-13T06:56:15.176Z,11.82
2022-10-13T06:58:42.836Z,10.27
2022-10-13T07:01:13.043Z,8.82
2022-10-13T07:03:40.620Z,10.50
2022-10-13T07:06:08.832Z,11.48
2022-10-13T07:08:37.853Z,9.52
2022-10-13T07:11:14.559Z,12.77
2022-10-13T07:13:46.335Z,8.93
2022-10-13T07:16:16.332Z,12.68
2022-10-13T07:18:43.899Z,11.27
2022-10-13T07:21:13.532Z,11.15
2022-10-13T07:23:42.720Z,11.73
2022-10-13T07:26:11.005Z,8.85
2022-10-13T07:28:38.665Z,10.18
2022-10-13T07:31:11.765Z,11.27
2022-10-13T07:33:39.597Z,10.23
2022-10-13T07:36:07.565Z,9.68
2022-10-13T07:38:35.110Z,12.65
2022-10-13T07:41:04.548Z,11.05
2022-10-13T07:43:32.327Z,13.02
2022-10-13T07:46:00.583Z,13.07
2022-10-13T07:48:28.799Z,10.95
2022-10-13T07:51:00.169Z,10.80
2022-10-13T07:53:28.012Z,11.32
2022-10-13T07:55:55.513Z,10.20
2022-10-13T07:58:24.480Z,11.25
2022-10-13T08:00:56.542Z,14.15
2022-10-13T08:03:26.528Z,11.63
2022-10-13T08:05:54.293Z,11.70
2022-10-13T08:08:22.216Z,10.68
2022-10-13T08:10:49.858Z,11.77
2022-10-13T08:13:20.169Z,11.90
2022-10-13T08:15:49.178Z,12.25
2022-10-13T08:18:17.240Z,12.70
2022-10-13T08:20:45.492Z,12.95
2022-10-13T08:23:13.185Z,11.63
2022-10-13T08:25:49.189Z,12.45
2022-10-13T08:28:18.875Z,11.68
2022-10-13T08:30:46.674Z,11.98
2022-10-13T08:33:15.657Z,9.98
2022-10-13T08:35:43.449Z,14.02
2022-10-13T08:38:11.589Z,11.85
2022-10-13T08:40:39.836Z,14.77
2022-10-13T08:43:07.915Z,12.75
2022-10-13T08:45:41.316Z,11.30
2022-10-13T08:48:13.345Z,12.65
2022-10-13T08:50:43.620Z,15.48
2022-10-13T08:53:13.597Z,18.10
2022-10-13T08:55:48.689Z,15.43
2022-10-13T08:58:19.695Z,22.83
2022-10-13T09:00:47.324Z,18.42
2022-10-13T09:03:22.543Z,14.10
2022-10-13T09:05:57.978Z,13.30
2022-10-13T09:08:27.779Z,14.48
2022-10-13T09:10:55.321Z,18.05
2022-10-13T09:13:23.208Z,12.60
2022-10-13T09:15:51.296Z,12.63
2022-10-13T09:18:18.863Z,15.85
2022-10-13T09:20:46.530Z,14.57
2022-10-13T09:23:19.422Z,13.45
2022-10-13T09:25:48.311Z,15.32
2022-10-13T09:28:17.741Z,18.05
2022-10-13T09:30:46.844Z,16.20
2022-10-13T09:33:22.115Z,16.27
2022-10-13T09:35:50.586Z,17.15
2022-10-13T09:38:20.813Z,13.70
2022-10-13T09:41:00.464Z,16.23
2022-10-13T09:43:34.574Z,15.93
2022-10-13T09:46:03.459Z,16.30
2022-10-13T09:48:33.338Z,17.77
2022-10-13T09:51:02.998Z,15.10
2022-10-13T09:53:33.603Z,14.75
2022-10-13T09:56:09.003Z,16.27
2022-10-13T09:58:38.653Z,14.88
2022-10-13T10:01:06.946Z,17.30
2022-10-13T10:03:36.401Z,19.80
2022-10-13T10:06:05.099Z,15.20
2022-10-13T10:08:51.259Z,16.83
2022-10-13T10:11:29.141Z,15.20
2022-10-13T10:13:57.092Z,13.52
2022-10-13T10:16:30.193Z,17.10
2022-10-13T10:19:01.336Z,16.65
2022-10-13T10:21:32.411Z,17.80
2022-10-13T10:24:04.885Z,17.00
2022-10-13T10:26:39.593Z,17.85
2022-10-13T10:29:17.520Z,17.45
2022-10-13T10:32:06.322Z,14.48
2022-10-13T10:34:37.532Z,16.35
2022-10-13T10:37:14.373Z,17.75
2022-10-13T10:39:46.394Z,16.10
2022-10-13T10:42:21.672Z,17.33
2022-10-13T10:44:52.374Z,19.30
2022-10-13T10:47:24.788Z,15.85
2022-10-13T10:49:54.589Z,16.20
2022-10-13T10:52:25.268Z,16.85
2022-10-13T10:55:05.086Z,18.08
2022-10-13T10:57:38.167Z,20.38
2022-10-13T11:00:07.067Z,14.93
2022-10-13T11:02:48.312Z,18.40
2022-10-13T11:05:16.637Z,15.07
2022-10-13T11:07:59.111Z,17.50
2022-10-13T11:10:28.975Z,15.82
2022-10-13T11:13:26.903Z,18.33
2022-10-13T11:15:55.359Z,17.48
2022-10-13T11:18:37.840Z,16.90
2022-10-13T11:21:05.546Z,18.15
2022-10-13T11:23:35.289Z,13.88
2022-10-13T11:26:21.391Z,16.20
2022-10-13T11:28:50.138Z,16.67
2022-10-13T11:31:24.981Z,14.88
2022-10-13T11:33:54.183Z,17.20
2022-10-13T11:36:37.889Z,14.52
2022-10-13T11:39:24.254Z,14.55
2022-10-13T11:41:55.993Z,15.23
2022-10-13T11:47:00.044Z,12.55
2022-10-13T11:49:42.038Z,16.65
2022-10-13T11:52:26.214Z,15.50
2022-10-13T11:54:56.667Z,17.35
2022-10-13T11:57:26.529Z,16.50
2022-10-13T11:59:55.829Z,16.02
2022-10-13T12:02:48.330Z,17.20
2022-10-13T12:05:20.806Z,13.18
2022-10-13T12:07:49.776Z,14.60
2022-10-13T12:10:19.338Z,16.73
2022-10-13T12:12:49.387Z,14.27
2022-10-13T12:15:28.833Z,21.08
2022-10-13T12:17:56.491Z,13.88
2022-10-13T12:20:26.062Z,16.63
2022-10-13T12:22:54.351Z,15.82
2022-10-13T12:25:22.593Z,16.00
2022-10-13T12:27:55.717Z,18.98
2022-10-13T12:30:25.123Z,13.57
2022-10-13T12:32:54.119Z,16.02
2022-10-13T12:35:23.807Z,16.67
2022-10-13T12:37:51.728Z,15.18
2022-10-13T12:40:19.901Z,16.63
2022-10-13T12:42:48.590Z,14.43
2022-10-13T12:45:18.781Z,18.13
2022-10-13T12:47:50.874Z,19.20
2022-10-13T12:50:22.577Z,15.82
2022-10-13T12:52:51.336Z,15.23
2022-10-13T12:55:20.346Z,18.90
2022-10-13T12:57:49.311Z,22.48
2022-10-13T13:00:23.696Z,18.73
2022-10-13T13:02:52.680Z,14.88
2022-10-13T13:05:30.667Z,13.73
2022-10-13T13:08:00.106Z,17.42
2022-10-13T13:10:27.869Z,16.98
2022-10-13T13:12:56.592Z,17.42
2022-10-13T13:15:36.027Z,18.05
2022-10-13T13:18:22.009Z,19.88
2022-10-13T13:20:49.593Z,18.02
2022-10-13T13:23:18.927Z,18.77
2022-10-13T13:25:46.740Z,17.45
2022-10-13T13:28:15.092Z,20.77
2022-10-13T13:30:44.531Z,20.73
2022-10-13T13:35:44.683Z,22.67
2022-10-13T13:38:12.791Z,21.85
2022-10-13T13:40:40.438Z,25.85
2022-10-13T13:43:09.189Z,22.15
2022-10-13T13:45:37.016Z,24.92
2022-10-13T13:48:10.025Z,24.63
2022-10-13T13:50:38.440Z,26.10
2022-10-13T13:53:06.564Z,24.52
2022-10-13T13:55:34.293Z,20.73
2022-10-13T13:58:02.197Z,27.55
2022-10-13T14:00:30.072Z,26.25
2022-10-13T14:02:58.191Z,29.45
2022-10-13T14:05:27.351Z,30.00
2022-10-13T14:07:56.732Z,26.30
2022-10-13T14:10:24.927Z,30.02
2022-10-13T14:12:52.854Z,27.08
2022-10-13T14:15:21.687Z,21.55
2022-10-13T14:17:52.434Z,26.27
2022-10-13T14:20:20.001Z,28.60
2022-10-13T14:22:49.175Z,30.15
2022-10-13T14:25:17.472Z,23.80
2022-10-13T14:27:46.012Z,26.80
2022-10-13T14:30:14.647Z,27.63
2022-10-13T14:32:42.285Z,27.00
2022-10-13T14:35:10.261Z,32.47
2022-10-13T14:37:38.123Z,25.25
2022-10-13T14:40:07.953Z,26.77
2022-10-13T14:42:35.784Z,28.75
2022-10-13T14:45:06.487Z,33.05
2022-10-13T14:47:34.170Z,29.70
2022-10-13T14:50:02.113Z,33.03
2022-10-13T14:52:29.824Z,29.05
2022-10-13T14:54:57.612Z,27.20
2022-10-13T14:57:29.495Z,28.58
2022-10-13T15:00:01.619Z,30.88
2022-10-13T15:02:29.823Z,31.38
2022-10-13T15:04:57.852Z,30.73
2022-10-13T15:07:25.561Z,32.40
2022-10-13T15:10:04.348Z,32.13
2022-10-13T15:12:34.822Z,30.20
2022-10-13T15:15:02.354Z,33.60
2022-10-13T15:17:30.840Z,29.00
2022-10-13T15:19:59.227Z,32.55
2022-10-13T15:22:26.899Z,32.53
2022-10-13T15:24:54.440Z,29.75
2022-10-13T15:27:22.055Z,32.50
2022-10-13T15:29:51.028Z,27.70
2022-10-13T15:32:20.278Z,27.90
2022-10-13T15:34:55.775Z,30.52
2022-10-13T15:37:23.508Z,29.92
2022-10-13T15:39:56.935Z,29.33
2022-10-13T15:42:25.081Z,30.90
2022-10-13T15:45:11.119Z,26.75
2022-10-13T15:47:39.207Z,31.02
2022-10-13T15:50:07.388Z,25.33
2022-10-13T15:52:38.125Z,28.60
2022-10-13T15:55:06.132Z,29.65
2022-10-13T15:57:33.721Z,29.17
2022-10-13T16:00:02.816Z,26.17
2022-10-13T16:02:40.321Z,30.08
2022-10-13T16:05:09.200Z,27.00
2022-10-13T16:07:36.775Z,28.42
2022-10-13T16:10:04.727Z,27.38
2022-10-13T16:12:32.512Z,29.08
2022-10-13T16:15:00.108Z,26.42
2022-10-13T16:17:29.205Z,29.48
2022-10-13T16:19:57.212Z,30.67
2022-10-13T16:22:25.119Z,33.92
2022-10-13T16:24:52.956Z,29.20
2022-10-13T16:27:20.518Z,29.38
2022-10-13T16:29:48.063Z,33.60
2022-10-13T16:32:15.821Z,30.73
2022-10-13T16:34:47.392Z,31.77
2022-10-13T16:37:19.933Z,30.73
2022-10-13T16:39:51.617Z,34.78
2022-10-13T16:42:19.887Z,33.88
2022-10-13T16:44:47.667Z,39.20
2022-10-13T16:47:18.481Z,34.50
2022-10-13T16:49:48.051Z,34.90
2022-10-13T16:52:17.124Z,40.15
2022-10-13T16:54:44.820Z,37.40
2022-10-13T16:57:12.404Z,37.83
2022-10-13T16:59:39.980Z,38.90
2022-10-13T17:02:07.691Z,41.38
2022-10-13T17:04:39.840Z,41.47
2022-10-13T17:07:08.762Z,40.85
2022-10-13T17:09:36.569Z,44.40
2022-10-13T17:12:04.521Z,45.95
2022-10-13T17:14:32.410Z,44.03
2022-10-13T17:16:59.948Z,51.10
2022-10-13T17:19:27.665Z,43.70
2022-10-13T17:21:55.452Z,42.28
2022-10-13T17:24:24.336Z,54.00
2022-10-13T17:26:51.902Z,63.45
2022-10-13T17:29:19.411Z,55.65
2022-10-13T17:31:46.922Z,56.67
2022-10-13T17:34:14.553Z,60.95
2022-10-13T17:36:42.164Z,52.92
2022-10-13T17:39:10.462Z,56.25
2022-10-13T17:41:42.002Z,50.50
2022-10-13T17:44:10.731Z,54.53
2022-10-13T17:46:39.491Z,59.55
2022-10-13T17:49:07.634Z,53.92
2022-10-13T17:51:35.708Z,57.13
2022-10-13T17:54:03.408Z,69.72
2022-10-13T17:56:31.580Z,279.48
2022-10-13T17:59:01.791Z,539.90
2022-10-13T18:01:31.469Z,145.00
2022-10-13T18:04:00.324Z,128.10
2022-10-13T18:06:31.486Z,73.07
2022-10-13T18:09:05.056Z,76.95
2022-10-13T18:11:32.673Z,67.97
2022-10-13T18:14:01.663Z,62.05
2022-10-13T18:16:29.330Z,60.55
2022-10-13T18:18:56.899Z,64.13
2022-10-13T18:21:26.611Z,64.38
2022-10-13T18:23:54.609Z,70.82
2022-10-13T18:26:22.326Z,63.90
2022-10-13T18:28:50.634Z,59.53
2022-10-13T18:31:25.215Z,61.13
2022-10-13T18:33:55.412Z,64.20
2022-10-13T18:36:23.931Z,60.53
2022-10-13T18:38:52.071Z,62.30
2022-10-13T18:41:20.264Z,56.70
2022-10-13T18:43:47.804Z,61.97
2022-10-13T18:46:18.844Z,53.70
2022-10-13T18:48:48.016Z,58.53
2022-10-13T18:51:16.333Z,54.65
2022-10-13T18:53:44.823Z,64.50
2022-10-13T18:56:13.916Z,63.75
2022-10-13T18:58:41.600Z,64.47
2022-10-13T19:01:09.911Z,64.32
2022-10-13T19:03:38.748Z,55.92
2022-10-13T19:06:08.516Z,53.67
2022-10-13T19:08:37.463Z,50.33
2022-10-13T19:11:10.777Z,51.45
2022-10-13T19:13:38.310Z,46.60
2022-10-13T19:16:06.399Z,50.15
2022-10-13T19:18:34.043Z,49.78
2022-10-13T19:21:01.617Z,82.95
2022-10-13T19:23:30.521Z,52.33
2022-10-13T19:25:59.651Z,58.25
2022-10-13T19:28:27.235Z,48.88
2022-10-13T19:30:55.096Z,48.53
2022-10-13T19:33:22.613Z,41.00
2022-10-13T19:35:51.741Z,42.78
2022-10-13T19:38:19.329Z,50.45
2022-10-13T19:40:49.568Z,46.75
2022-10-13T19:43:17.715Z,51.40
2022-10-13T19:45:46.552Z,52.65
2022-10-13T19:48:15.698Z,41.30
2022-10-13T19:50:43.709Z,47.78
2022-10-13T19:53:14.422Z,45.25
2022-10-13T19:55:42.733Z,47.95
2022-10-13T19:58:11.887Z,52.67
2022-10-13T20:00:39.569Z,52.40
2022-10-13T20:03:09.976Z,50.60
2022-10-13T20:05:40.937Z,49.95
2022-10-13T20:08:09.881Z,49.53
2022-10-13T20:10:39.064Z,49.20
2022-10-13T20:13:06.773Z,51.50
2022-10-13T20:15:39.461Z,53.95
2022-10-13T20:18:07.200Z,60.17
2022-10-13T20:20:35.436Z,59.58
2022-10-13T20:23:02.952Z,55.05
2022-10-13T20:25:30.477Z,59.13
2022-10-13T20:27:58.338Z,63.38
2022-10-13T20:30:25.864Z,64.10
2022-10-13T20:32:56.449Z,64.50
2022-10-13T20:35:26.329Z,60.00
2022-10-13T20:37:55.002Z,66.45
2022-10-13T20:40:22.668Z,61.60
2022-10-13T20:42:51.064Z,63.65
2022-10-13T20:45:21.123Z,62.92
2022-10-13T20:47:48.716Z,68.35
2022-10-13T20:50:17.783Z,71.93
2022-10-13T20:52:46.491Z,61.10
2022-10-13T20:55:14.033Z,61.75
2022-10-13T20:57:41.564Z,65.35
2022-10-13T21:00:10.077Z,70.15
2022-10-13T21:02:38.004Z,68.20
2022-10-13T21:05:05.809Z,67.22
2022-10-13T21:07:35.033Z,69.57
2022-10-13T21:10:02.629Z,64.50
2022-10-13T21:12:31.260Z,70.88
2022-10-13T21:14:58.831Z,69.00
2022-10-13T21:17:26.589Z,74.25
2022-10-13T21:19:55.402Z,66.70
2022-10-13T21:22:22.885Z,74.63
2022-10-13T21:24:52.319Z,72.43
2022-10-13T21:27:20.176Z,68.00
2022-10-13T21:29:47.905Z,75.32
2022-10-13T21:32:17.276Z,73.03
2022-10-13T21:34:48.178Z,74.90
2022-10-13T21:37:18.631Z,73.38
2022-10-13T21:39:47.930Z,71.00
2022-10-13T21:42:17.100Z,74.90
2022-10-13T21:44:44.693Z,69.50
2022-10-13T21:47:12.415Z,76.70
2022-10-13T21:49:40.082Z,79.72
2022-10-13T21:52:07.636Z,75.05
2022-10-13T21:54:35.337Z,76.57
2022-10-13T21:57:03.051Z,74.70
2022-10-13T21:59:32.049Z,88.53
2022-10-13T22:01:59.609Z,79.35
2022-10-13T22:04:27.103Z,75.32
2022-10-13T22:06:54.666Z,75.70
2022-10-13T22:09:26.000Z,73.28
2022-10-13T22:11:58.550Z,81.05
2022-10-13T22:14:26.417Z,73.05
2022-10-13T22:16:55.352Z,82.95
2022-10-13T22:19:23.460Z,78.18
2022-10-13T22:21:51.462Z,75.35
2022-10-13T22:24:21.158Z,80.25
2022-10-13T22:26:49.409Z,83.43
2022-10-13T22:29:19.416Z,81.60
2022-10-13T22:31:48.332Z,84.07
2022-10-13T22:34:17.587Z,79.85
2022-10-13T22:36:45.561Z,80.95
2022-10-13T22:39:13.888Z,87.07
2022-10-13T22:41:41.664Z,86.10
2022-10-13T22:44:09.240Z,85.18
2022-10-13T22:46:37.989Z,86.05
2022-10-13T22:49:05.966Z,83.68
2022-10-13T22:51:35.808Z,85.97
2022-10-13T22:54:03.834Z,83.30
2022-10-13T22:56:32.604Z,87.68
2022-10-13T22:59:00.868Z,84.43
2022-10-13T23:01:29.002Z,85.78
2022-10-13T23:03:57.853Z,89.13
2022-10-13T23:06:26.447Z,80.82
2022-10-13T23:08:55.900Z,86.80
2022-10-13T23:11:23.954Z,84.95
2022-10-13T23:13:51.772Z,85.68
2022-10-13T23:16:20.604Z,80.85
2022-10-13T23:18:48.533Z,79.97
2022-10-13T23:21:24.322Z,92.88
2022-10-13T23:23:56.095Z,82.38
2022-10-13T23:26:24.347Z,87.93
2022-10-13T23:28:53.288Z,78.63
2022-10-13T23:31:21.040Z,76.10
2022-10-13T23:33:48.782Z,83.00
2022-10-13T23:36:17.634Z,78.72
2022-10-13T23:38:48.932Z,79.78
2022-10-13T23:41:17.906Z,85.20
2022-10-13T23:43:45.462Z,81.13
2022-10-13T23:46:12.991Z,86.90
2022-10-13T23:48:40.933Z,81.88
2022-10-13T23:51:10.085Z,85.82
2022-10-13T23:53:38.603Z,80.30
2022-10-13T23:56:06.663Z,81.78
2022-10-13T23:58:35.844Z,87.53
